Terminal Aerodrome Forecast
Issued by NWS

Current Version | Previous Version | Graphics & Text | Print | Product List | Glossary Off
Versions: 1 2 3 4 5 6 7 8 9 10 11 12 13 14 15 16 17 18 19 20 21 22 23

000
FTUS41 KRLX 010200 AAA
TAFCKB
TAF AMD
KCKB 010257Z 0103/0124 14003KT P6SM SCT045 BKN060 BKN070
     FM010400 00000KT 6SM BR BKN060
     FM011000 00000KT 6SM BR BKN012
     FM011600 00000KT P6SM SCT012
     FM011700 VRB03KT P6SM SCT035=

USA.gov is the U.S. government's official web portal to all federal, state and local government web resources and services.